sensor_id;sensor_type;location;lat;lon;timestamp;temperature;humidity
8856;DHT22;4464;50.882;4.730;2022-10-26T00:00:48;13.80;99.90
8856;DHT22;4464;50.882;4.730;2022-10-26T00:03:16;13.80;99.90
8856;DHT22;4464;50.882;4.730;2022-10-26T00:05:47;13.90;99.90
8856;DHT22;4464;50.882;4.730;2022-10-26T00:08:13;13.90;99.90
8856;DHT22;4464;50.882;4.730;2022-10-26T00:10:39;13.90;99.90
8856;DHT22;4464;50.882;4.730;2022-10-26T00:13:08;13.90;99.90
8856;DHT22;4464;50.882;4.730;2022-10-26T00:15:39;13.90;99.90
8856;DHT22;4464;50.882;4.730;2022-10-26T00:18:04;14.00;99.90
8856;DHT22;4464;50.882;4.730;2022-10-26T00:20:31;14.00;99.90
8856;DHT22;4464;50.882;4.730;2022-10-26T00:22:57;14.00;99.90
8856;DHT22;4464;50.882;4.730;2022-10-26T00:25:23;14.10;99.90
8856;DHT22;4464;50.882;4.730;2022-10-26T00:27:51;14.10;99.90
8856;DHT22;4464;50.882;4.730;2022-10-26T00:30:19;14.10;99.90
8856;DHT22;4464;50.882;4.730;2022-10-26T00:32:45;14.10;99.90
8856;DHT22;4464;50.882;4.730;2022-10-26T00:35:11;14.10;99.90
8856;DHT22;4464;50.882;4.730;2022-10-26T00:37:39;14.10;99.90
8856;DHT22;4464;50.882;4.730;2022-10-26T00:40:08;14.10;99.90
8856;DHT22;4464;50.882;4.730;2022-10-26T00:42:34;14.10;99.90
8856;DHT22;4464;50.882;4.730;2022-10-26T00:45:17;14.10;99.90
8856;DHT22;4464;50.882;4.730;2022-10-26T00:47:46;14.10;99.90
8856;DHT22;4464;50.882;4.730;2022-10-26T00:50:30;14.10;99.90
8856;DHT22;4464;50.882;4.730;2022-10-26T00:52:59;14.10;99.90
8856;DHT22;4464;50.882;4.730;2022-10-26T00:55:33;14.10;99.90
8856;DHT22;4464;50.882;4.730;2022-10-26T00:58:01;14.10;99.90
8856;DHT22;4464;50.882;4.730;2022-10-26T01:00:28;14.10;99.90
8856;DHT22;4464;50.882;4.730;2022-10-26T01:02:56;14.10;99.90
8856;DHT22;4464;50.882;4.730;2022-10-26T01:05:25;14.10;99.90
8856;DHT22;4464;50.882;4.730;2022-10-26T01:07:51;14.00;99.90
8856;DHT22;4464;50.882;4.730;2022-10-26T01:10:19;14.00;99.90
8856;DHT22;4464;50.882;4.730;2022-10-26T01:12:45;14.00;99.90
8856;DHT22;4464;50.882;4.730;2022-10-26T01:15:12;14.00;99.90
8856;DHT22;4464;50.882;4.730;2022-10-26T01:25:40;14.10;99.90
8856;DHT22;4464;50.882;4.730;2022-10-26T01:31:29;14.10;99.90
8856;DHT22;4464;50.882;4.730;2022-10-26T01:34:07;14.10;99.90
8856;DHT22;4464;50.882;4.730;2022-10-26T01:36:56;14.10;99.90
8856;DHT22;4464;50.882;4.730;2022-10-26T01:39:30;14.10;99.90
8856;DHT22;4464;50.882;4.730;2022-10-26T01:42:00;14.00;99.90
8856;DHT22;4464;50.882;4.730;2022-10-26T01:44:56;14.00;99.90
8856;DHT22;4464;50.882;4.730;2022-10-26T01:47:25;14.00;99.90
8856;DHT22;4464;50.882;4.730;2022-10-26T01:49:58;14.00;99.90
8856;DHT22;4464;50.882;4.730;2022-10-26T01:52:25;14.00;99.90
8856;DHT22;4464;50.882;4.730;2022-10-26T01:55:06;14.00;99.90
8856;DHT22;4464;50.882;4.730;2022-10-26T01:57:50;14.10;99.90
8856;DHT22;4464;50.882;4.730;2022-10-26T02:00:16;14.20;99.90
8856;DHT22;4464;50.882;4.730;2022-10-26T02:05:29;14.10;99.90
8856;DHT22;4464;50.882;4.730;2022-10-26T02:10:26;14.20;99.90
8856;DHT22;4464;50.882;4.730;2022-10-26T02:21:16;14.30;99.90
8856;DHT22;4464;50.882;4.730;2022-10-26T02:23:45;14.30;99.90
8856;DHT22;4464;50.882;4.730;2022-10-26T02:26:14;14.30;99.90
8856;DHT22;4464;50.882;4.730;2022-10-26T02:28:48;14.30;99.90
8856;DHT22;4464;50.882;4.730;2022-10-26T02:31:17;14.30;99.90
8856;DHT22;4464;50.882;4.730;2022-10-26T02:33:50;14.40;99.90
8856;DHT22;4464;50.882;4.730;2022-10-26T02:36:23;14.40;99.90
8856;DHT22;4464;50.882;4.730;2022-10-26T02:38:51;14.40;99.90
8856;DHT22;4464;50.882;4.730;2022-10-26T02:41:19;14.50;99.90
8856;DHT22;4464;50.882;4.730;2022-10-26T02:46:33;14.50;99.90
8856;DHT22;4464;50.882;4.730;2022-10-26T02:48:59;14.50;99.90
8856;DHT22;4464;50.882;4.730;2022-10-26T02:51:41;14.50;99.90
8856;DHT22;4464;50.882;4.730;2022-10-26T02:57:09;14.60;99.90
8856;DHT22;4464;50.882;4.730;2022-10-26T02:59:39;14.60;99.90
8856;DHT22;4464;50.882;4.730;2022-10-26T03:02:06;14.60;99.90
8856;DHT22;4464;50.882;4.730;2022-10-26T03:04:33;14.70;99.90
8856;DHT22;4464;50.882;4.730;2022-10-26T03:06:59;14.70;99.90
8856;DHT22;4464;50.882;4.730;2022-10-26T03:09:26;14.80;99.90
8856;DHT22;4464;50.882;4.730;2022-10-26T03:11:52;14.80;99.90
8856;DHT22;4464;50.882;4.730;2022-10-26T03:14:19;14.80;99.90
8856;DHT22;4464;50.882;4.730;2022-10-26T03:16:45;14.80;99.90
8856;DHT22;4464;50.882;4.730;2022-10-26T03:19:11;14.80;99.90
8856;DHT22;4464;50.882;4.730;2022-10-26T03:21:37;14.90;99.90
8856;DHT22;4464;50.882;4.730;2022-10-26T03:24:03;14.90;99.90
8856;DHT22;4464;50.882;4.730;2022-10-26T03:26:31;14.90;99.90
8856;DHT22;4464;50.882;4.730;2022-10-26T03:28:56;14.90;99.90
8856;DHT22;4464;50.882;4.730;2022-10-26T03:31:23;14.90;99.90
8856;DHT22;4464;50.882;4.730;2022-10-26T03:33:48;15.00;99.90
8856;DHT22;4464;50.882;4.730;2022-10-26T03:36:14;15.10;99.90
8856;DHT22;4464;50.882;4.730;2022-10-26T03:38:40;15.10;99.90
8856;DHT22;4464;50.882;4.730;2022-10-26T03:41:06;15.00;99.90
8856;DHT22;4464;50.882;4.730;2022-10-26T03:43:32;15.00;99.90
8856;DHT22;4464;50.882;4.730;2022-10-26T03:45:58;15.00;99.90
8856;DHT22;4464;50.882;4.730;2022-10-26T03:48:23;15.10;99.90
8856;DHT22;4464;50.882;4.730;2022-10-26T03:50:51;15.00;99.90
8856;DHT22;4464;50.882;4.730;2022-10-26T03:53:20;15.00;99.90
8856;DHT22;4464;50.882;4.730;2022-10-26T03:55:45;15.10;99.90
8856;DHT22;4464;50.882;4.730;2022-10-26T03:58:11;15.10;99.90
8856;DHT22;4464;50.882;4.730;2022-10-26T04:00:37;15.10;99.90
8856;DHT22;4464;50.882;4.730;2022-10-26T04:03:05;15.20;99.90
8856;DHT22;4464;50.882;4.730;2022-10-26T04:05:31;15.20;99.90
8856;DHT22;4464;50.882;4.730;2022-10-26T04:07:59;15.30;99.90
8856;DHT22;4464;50.882;4.730;2022-10-26T04:10:28;15.30;99.90
8856;DHT22;4464;50.882;4.730;2022-10-26T04:12:54;15.30;99.90
8856;DHT22;4464;50.882;4.730;2022-10-26T04:15:21;15.30;99.90
8856;DHT22;4464;50.882;4.730;2022-10-26T04:17:58;15.40;99.90
8856;DHT22;4464;50.882;4.730;2022-10-26T04:20:28;15.40;99.90
8856;DHT22;4464;50.882;4.730;2022-10-26T04:22:58;15.50;99.90
8856;DHT22;4464;50.882;4.730;2022-10-26T04:25:25;15.50;99.90
8856;DHT22;4464;50.882;4.730;2022-10-26T04:27:51;15.50;99.90
8856;DHT22;4464;50.882;4.730;2022-10-26T04:30:18;15.50;99.90
8856;DHT22;4464;50.882;4.730;2022-10-26T04:32:44;15.40;99.90
8856;DHT22;4464;50.882;4.730;2022-10-26T04:35:09;15.40;99.90
8856;DHT22;4464;50.882;4.730;2022-10-26T04:37:35;15.40;99.90
8856;DHT22;4464;50.882;4.730;2022-10-26T04:40:00;15.30;99.90
8856;DHT22;4464;50.882;4.730;2022-10-26T04:42:26;15.30;99.90
8856;DHT22;4464;50.882;4.730;2022-10-26T04:44:55;15.30;99.90
8856;DHT22;4464;50.882;4.730;2022-10-26T04:47:20;15.30;99.90
8856;DHT22;4464;50.882;4.730;2022-10-26T04:49:50;15.40;99.90
8856;DHT22;4464;50.882;4.730;2022-10-26T04:52:16;15.40;99.90
8856;DHT22;4464;50.882;4.730;2022-10-26T04:54:42;15.40;99.90
8856;DHT22;4464;50.882;4.730;2022-10-26T04:57:07;15.40;99.90
8856;DHT22;4464;50.882;4.730;2022-10-26T04:59:33;15.30;99.90
8856;DHT22;4464;50.882;4.730;2022-10-26T05:02:02;15.40;99.90
8856;DHT22;4464;50.882;4.730;2022-10-26T05:04:29;15.40;99.90
8856;DHT22;4464;50.882;4.730;2022-10-26T05:06:55;15.40;99.90
8856;DHT22;4464;50.882;4.730;2022-10-26T05:09:20;15.50;99.90
8856;DHT22;4464;50.882;4.730;2022-10-26T05:11:48;15.40;99.90
8856;DHT22;4464;50.882;4.730;2022-10-26T05:14:14;15.40;99.90
8856;DHT22;4464;50.882;4.730;2022-10-26T05:16:40;15.40;99.90
8856;DHT22;4464;50.882;4.730;2022-10-26T05:19:06;15.50;99.90
8856;DHT22;4464;50.882;4.730;2022-10-26T05:21:32;15.50;99.90
8856;DHT22;4464;50.882;4.730;2022-10-26T05:24:00;15.40;99.90
8856;DHT22;4464;50.882;4.730;2022-10-26T05:26:25;15.40;99.90
8856;DHT22;4464;50.882;4.730;2022-10-26T05:28:51;15.40;99.90
8856;DHT22;4464;50.882;4.730;2022-10-26T05:31:17;15.40;99.90
8856;DHT22;4464;50.882;4.730;2022-10-26T05:33:43;15.40;99.90
8856;DHT22;4464;50.882;4.730;2022-10-26T05:36:09;15.40;99.90
8856;DHT22;4464;50.882;4.730;2022-10-26T05:38:34;15.40;99.90
8856;DHT22;4464;50.882;4.730;2022-10-26T05:41:00;15.40;99.90
8856;DHT22;4464;50.882;4.730;2022-10-26T05:43:27;15.40;99.90
8856;DHT22;4464;50.882;4.730;2022-10-26T05:45:53;15.30;99.90
8856;DHT22;4464;50.882;4.730;2022-10-26T05:48:20;15.20;99.90
8856;DHT22;4464;50.882;4.730;2022-10-26T05:50:45;15.20;99.90
8856;DHT22;4464;50.882;4.730;2022-10-26T05:53:12;15.20;99.90
8856;DHT22;4464;50.882;4.730;2022-10-26T05:55:38;15.10;99.90
8856;DHT22;4464;50.882;4.730;2022-10-26T05:58:09;15.10;99.90
8856;DHT22;4464;50.882;4.730;2022-10-26T06:01:01;15.00;99.90
8856;DHT22;4464;50.882;4.730;2022-10-26T06:06:16;15.00;99.90
8856;DHT22;4464;50.882;4.730;2022-10-26T06:08:42;14.90;99.90
8856;DHT22;4464;50.882;4.730;2022-10-26T06:11:09;14.90;99.90
8856;DHT22;4464;50.882;4.730;2022-10-26T06:13:38;14.90;99.90
8856;DHT22;4464;50.882;4.730;2022-10-26T06:16:49;14.90;99.90
8856;DHT22;4464;50.882;4.730;2022-10-26T06:19:07;14.80;99.90
8856;DHT22;4464;50.882;4.730;2022-10-26T06:24:51;14.70;99.90
8856;DHT22;4464;50.882;4.730;2022-10-26T06:28:10;14.80;99.90
8856;DHT22;4464;50.882;4.730;2022-10-26T06:30:09;14.80;99.90
8856;DHT22;4464;50.882;4.730;2022-10-26T06:32:37;14.70;99.90
8856;DHT22;4464;50.882;4.730;2022-10-26T06:38:00;14.70;99.90
8856;DHT22;4464;50.882;4.730;2022-10-26T06:40:32;14.70;99.90
8856;DHT22;4464;50.882;4.730;2022-10-26T06:43:02;14.70;99.90
8856;DHT22;4464;50.882;4.730;2022-10-26T06:45:28;14.70;99.90
8856;DHT22;4464;50.882;4.730;2022-10-26T06:48:09;14.80;99.90
8856;DHT22;4464;50.882;4.730;2022-10-26T06:50:37;14.90;99.90
8856;DHT22;4464;50.882;4.730;2022-10-26T06:55:45;15.00;99.90
8856;DHT22;4464;50.882;4.730;2022-10-26T06:58:15;15.10;99.90
8856;DHT22;4464;50.882;4.730;2022-10-26T07:00:43;15.00;99.90
8856;DHT22;4464;50.882;4.730;2022-10-26T07:03:12;15.00;99.90
8856;DHT22;4464;50.882;4.730;2022-10-26T07:05:38;15.10;99.90
8856;DHT22;4464;50.882;4.730;2022-10-26T07:08:04;15.20;99.90
8856;DHT22;4464;50.882;4.730;2022-10-26T07:10:30;15.20;99.90
8856;DHT22;4464;50.882;4.730;2022-10-26T07:12:57;15.20;99.90
8856;DHT22;4464;50.882;4.730;2022-10-26T07:15:23;15.20;99.90
8856;DHT22;4464;50.882;4.730;2022-10-26T07:17:49;15.30;99.90
8856;DHT22;4464;50.882;4.730;2022-10-26T07:20:17;15.30;99.90
8856;DHT22;4464;50.882;4.730;2022-10-26T07:22:43;15.30;99.90
8856;DHT22;4464;50.882;4.730;2022-10-26T07:25:09;15.40;99.90
8856;DHT22;4464;50.882;4.730;2022-10-26T07:27:36;15.60;99.90
8856;DHT22;4464;50.882;4.730;2022-10-26T07:30:03;15.80;99.90
8856;DHT22;4464;50.882;4.730;2022-10-26T07:32:31;15.80;99.90
8856;DHT22;4464;50.882;4.730;2022-10-26T07:34:57;15.80;99.90
8856;DHT22;4464;50.882;4.730;2022-10-26T07:37:23;15.80;99.90
8856;DHT22;4464;50.882;4.730;2022-10-26T07:39:53;15.80;99.90
8856;DHT22;4464;50.882;4.730;2022-10-26T07:42:21;15.80;99.90
8856;DHT22;4464;50.882;4.730;2022-10-26T07:44:49;15.80;99.90
8856;DHT22;4464;50.882;4.730;2022-10-26T07:47:17;15.80;99.90
8856;DHT22;4464;50.882;4.730;2022-10-26T07:49:42;15.90;99.90
8856;DHT22;4464;50.882;4.730;2022-10-26T07:52:08;16.10;99.90
8856;DHT22;4464;50.882;4.730;2022-10-26T07:54:34;16.50;99.90
8856;DHT22;4464;50.882;4.730;2022-10-26T07:57:00;17.00;99.90
8856;DHT22;4464;50.882;4.730;2022-10-26T07:59:29;17.50;99.90
8856;DHT22;4464;50.882;4.730;2022-10-26T08:01:58;18.00;99.90
8856;DHT22;4464;50.882;4.730;2022-10-26T08:04:24;18.60;99.90
8856;DHT22;4464;50.882;4.730;2022-10-26T08:06:50;18.90;99.90
8856;DHT22;4464;50.882;4.730;2022-10-26T08:09:17;19.30;99.90
8856;DHT22;4464;50.882;4.730;2022-10-26T08:11:44;19.30;99.90
8856;DHT22;4464;50.882;4.730;2022-10-26T08:14:10;19.40;99.90
8856;DHT22;4464;50.882;4.730;2022-10-26T08:16:37;19.70;99.90
8856;DHT22;4464;50.882;4.730;2022-10-26T08:19:05;19.90;99.90
8856;DHT22;4464;50.882;4.730;2022-10-26T08:21:32;20.10;99.90
8856;DHT22;4464;50.882;4.730;2022-10-26T08:23:58;20.30;99.90
8856;DHT22;4464;50.882;4.730;2022-10-26T08:26:26;20.60;99.90
8856;DHT22;4464;50.882;4.730;2022-10-26T08:28:52;20.60;99.90
8856;DHT22;4464;50.882;4.730;2022-10-26T08:31:18;21.00;99.90
8856;DHT22;4464;50.882;4.730;2022-10-26T08:33:44;20.90;99.90
8856;DHT22;4464;50.882;4.730;2022-10-26T08:36:11;21.20;99.90
8856;DHT22;4464;50.882;4.730;2022-10-26T08:38:39;21.40;99.90
8856;DHT22;4464;50.882;4.730;2022-10-26T08:41:08;21.50;99.90
8856;DHT22;4464;50.882;4.730;2022-10-26T08:43:39;21.60;99.90
8856;DHT22;4464;50.882;4.730;2022-10-26T08:46:12;21.50;99.90
8856;DHT22;4464;50.882;4.730;2022-10-26T08:48:46;21.50;99.90
8856;DHT22;4464;50.882;4.730;2022-10-26T08:51:18;21.40;99.90
8856;DHT22;4464;50.882;4.730;2022-10-26T08:56:24;22.20;99.90
8856;DHT22;4464;50.882;4.730;2022-10-26T08:59:00;22.50;99.90
8856;DHT22;4464;50.882;4.730;2022-10-26T09:01:30;22.70;99.90
8856;DHT22;4464;50.882;4.730;2022-10-26T09:03:57;22.80;99.90
8856;DHT22;4464;50.882;4.730;2022-10-26T09:09:23;23.20;99.90
8856;DHT22;4464;50.882;4.730;2022-10-26T09:17:54;24.00;99.90
8856;DHT22;4464;50.882;4.730;2022-10-26T09:25:45;23.30;99.90
8856;DHT22;4464;50.882;4.730;2022-10-26T09:28:17;23.50;99.90
8856;DHT22;4464;50.882;4.730;2022-10-26T09:30:45;23.30;99.90
8856;DHT22;4464;50.882;4.730;2022-10-26T09:33:19;23.60;99.90
8856;DHT22;4464;50.882;4.730;2022-10-26T09:35:49;24.10;99.90
8856;DHT22;4464;50.882;4.730;2022-10-26T09:47:03;24.00;99.90
8856;DHT22;4464;50.882;4.730;2022-10-26T09:49:42;24.00;99.90
8856;DHT22;4464;50.882;4.730;2022-10-26T09:52:09;23.10;99.90
8856;DHT22;4464;50.882;4.730;2022-10-26T09:54:34;23.20;99.90
8856;DHT22;4464;50.882;4.730;2022-10-26T09:57:00;23.40;99.90
8856;DHT22;4464;50.882;4.730;2022-10-26T09:59:29;23.70;99.90
8856;DHT22;4464;50.882;4.730;2022-10-26T10:01:58;22.90;99.90
8856;DHT22;4464;50.882;4.730;2022-10-26T10:04:23;21.80;99.90
8856;DHT22;4464;50.882;4.730;2022-10-26T10:09:25;20.80;99.90
8856;DHT22;4464;50.882;4.730;2022-10-26T10:11:56;20.70;99.90
8856;DHT22;4464;50.882;4.730;2022-10-26T10:14:25;20.90;99.90
8856;DHT22;4464;50.882;4.730;2022-10-26T10:16:56;21.10;99.90
8856;DHT22;4464;50.882;4.730;2022-10-26T10:19:33;21.10;99.90
8856;DHT22;4464;50.882;4.730;2022-10-26T10:22:08;21.40;99.90
8856;DHT22;4464;50.882;4.730;2022-10-26T10:24:39;22.00;99.90
8856;DHT22;4464;50.882;4.730;2022-10-26T10:29:54;22.80;99.90
8856;DHT22;4464;50.882;4.730;2022-10-26T10:34:49;24.20;99.90
8856;DHT22;4464;50.882;4.730;2022-10-26T10:37:33;25.00;99.90
8856;DHT22;4464;50.882;4.730;2022-10-26T10:40:02;24.90;99.90
8856;DHT22;4464;50.882;4.730;2022-10-26T10:42:33;25.20;99.90
8856;DHT22;4464;50.882;4.730;2022-10-26T10:45:01;25.70;99.90
8856;DHT22;4464;50.882;4.730;2022-10-26T10:47:33;26.40;99.90
8856;DHT22;4464;50.882;4.730;2022-10-26T10:50:03;26.20;99.90
8856;DHT22;4464;50.882;4.730;2022-10-26T10:52:34;26.30;99.90
8856;DHT22;4464;50.882;4.730;2022-10-26T10:55:19;26.00;99.90
8856;DHT22;4464;50.882;4.730;2022-10-26T11:00:30;25.50;99.90
8856;DHT22;4464;50.882;4.730;2022-10-26T11:06:17;25.60;99.90
8856;DHT22;4464;50.882;4.730;2022-10-26T11:09:06;25.50;99.90
8856;DHT22;4464;50.882;4.730;2022-10-26T11:11:49;25.90;99.90
8856;DHT22;4464;50.882;4.730;2022-10-26T11:14:25;25.90;99.90
8856;DHT22;4464;50.882;4.730;2022-10-26T11:17:01;25.60;99.90
8856;DHT22;4464;50.882;4.730;2022-10-26T11:19:46;25.50;99.90
8856;DHT22;4464;50.882;4.730;2022-10-26T11:22:22;25.80;99.90
8856;DHT22;4464;50.882;4.730;2022-10-26T11:24:49;26.00;99.90
8856;DHT22;4464;50.882;4.730;2022-10-26T11:27:26;25.90;99.90
8856;DHT22;4464;50.882;4.730;2022-10-26T11:30:29;25.20;99.90
8856;DHT22;4464;50.882;4.730;2022-10-26T11:33:10;25.70;99.90
8856;DHT22;4464;50.882;4.730;2022-10-26T11:35:51;26.40;99.90
8856;DHT22;4464;50.882;4.730;2022-10-26T11:43:56;25.70;99.90
8856;DHT22;4464;50.882;4.730;2022-10-26T11:46:40;25.40;99.90
8856;DHT22;4464;50.882;4.730;2022-10-26T11:49:32;25.30;99.90
8856;DHT22;4464;50.882;4.730;2022-10-26T11:54:53;25.50;99.90
8856;DHT22;4464;50.882;4.730;2022-10-26T11:57:21;25.40;99.90
8856;DHT22;4464;50.882;4.730;2022-10-26T11:59:53;26.30;99.90
8856;DHT22;4464;50.882;4.730;2022-10-26T12:02:23;26.50;99.90
8856;DHT22;4464;50.882;4.730;2022-10-26T12:04:58;26.30;99.90
8856;DHT22;4464;50.882;4.730;2022-10-26T12:07:31;26.30;99.90
8856;DHT22;4464;50.882;4.730;2022-10-26T12:09:59;26.80;99.90
8856;DHT22;4464;50.882;4.730;2022-10-26T12:21:05;26.40;99.90
8856;DHT22;4464;50.882;4.730;2022-10-26T12:23:53;25.90;99.90
8856;DHT22;4464;50.882;4.730;2022-10-26T12:34:00;25.80;99.90
8856;DHT22;4464;50.882;4.730;2022-10-26T12:44:38;26.20;99.90
8856;DHT22;4464;50.882;4.730;2022-10-26T12:47:08;26.60;99.90
8856;DHT22;4464;50.882;4.730;2022-10-26T12:52:52;26.20;99.90
8856;DHT22;4464;50.882;4.730;2022-10-26T13:01:41;26.40;99.90
8856;DHT22;4464;50.882;4.730;2022-10-26T13:04:21;27.10;99.90
8856;DHT22;4464;50.882;4.730;2022-10-26T13:07:25;27.90;99.90
8856;DHT22;4464;50.882;4.730;2022-10-26T13:10:24;28.00;99.90
8856;DHT22;4464;50.882;4.730;2022-10-26T13:12:52;28.00;99.90
8856;DHT22;4464;50.882;4.730;2022-10-26T13:15:39;28.20;99.90
8856;DHT22;4464;50.882;4.730;2022-10-26T13:18:09;28.70;99.30
8856;DHT22;4464;50.882;4.730;2022-10-26T13:21:16;28.40;99.50
8856;DHT22;4464;50.882;4.730;2022-10-26T13:26:17;26.60;99.90
8856;DHT22;4464;50.882;4.730;2022-10-26T13:39:41;26.50;99.90
8856;DHT22;4464;50.882;4.730;2022-10-26T13:42:17;26.70;99.90
8856;DHT22;4464;50.882;4.730;2022-10-26T13:45:02;26.80;99.90
8856;DHT22;4464;50.882;4.730;2022-10-26T13:47:52;25.80;99.90
8856;DHT22;4464;50.882;4.730;2022-10-26T13:50:27;24.90;99.90
8856;DHT22;4464;50.882;4.730;2022-10-26T13:52:59;24.30;99.90
8856;DHT22;4464;50.882;4.730;2022-10-26T13:55:41;24.50;99.90
8856;DHT22;4464;50.882;4.730;2022-10-26T13:58:29;24.80;99.90
8856;DHT22;4464;50.882;4.730;2022-10-26T14:01:18;25.10;99.90
8856;DHT22;4464;50.882;4.730;2022-10-26T14:03:46;25.60;99.90
8856;DHT22;4464;50.882;4.730;2022-10-26T14:06:35;25.50;99.90
8856;DHT22;4464;50.882;4.730;2022-10-26T14:09:04;25.20;99.90
8856;DHT22;4464;50.882;4.730;2022-10-26T14:11:41;24.90;99.90
8856;DHT22;4464;50.882;4.730;2022-10-26T14:14:16;24.80;99.90
8856;DHT22;4464;50.882;4.730;2022-10-26T14:16:45;25.10;99.90
8856;DHT22;4464;50.882;4.730;2022-10-26T14:19:22;24.70;99.90
8856;DHT22;4464;50.882;4.730;2022-10-26T14:21:50;24.60;99.90
8856;DHT22;4464;50.882;4.730;2022-10-26T14:24:37;24.60;99.90
8856;DHT22;4464;50.882;4.730;2022-10-26T14:27:14;24.70;99.90
8856;DHT22;4464;50.882;4.730;2022-10-26T14:29:41;24.70;99.90
8856;DHT22;4464;50.882;4.730;2022-10-26T14:32:27;25.40;99.90
8856;DHT22;4464;50.882;4.730;2022-10-26T14:34:53;25.70;99.90
8856;DHT22;4464;50.882;4.730;2022-10-26T14:40:23;25.60;99.90
8856;DHT22;4464;50.882;4.730;2022-10-26T14:43:00;24.60;99.90
8856;DHT22;4464;50.882;4.730;2022-10-26T14:45:35;23.70;99.90
8856;DHT22;4464;50.882;4.730;2022-10-26T14:48:05;22.90;99.90
8856;DHT22;4464;50.882;4.730;2022-10-26T14:50:32;22.60;99.90
8856;DHT22;4464;50.882;4.730;2022-10-26T14:53:15;22.30;99.90
8856;DHT22;4464;50.882;4.730;2022-10-26T14:55:48;22.10;99.90
8856;DHT22;4464;50.882;4.730;2022-10-26T14:58:25;21.90;99.90
8856;DHT22;4464;50.882;4.730;2022-10-26T15:03:48;21.70;99.90
8856;DHT22;4464;50.882;4.730;2022-10-26T15:06:37;21.70;99.90
8856;DHT22;4464;50.882;4.730;2022-10-26T15:09:04;22.00;99.90
8856;DHT22;4464;50.882;4.730;2022-10-26T15:11:34;22.40;99.90
8856;DHT22;4464;50.882;4.730;2022-10-26T15:14:10;22.70;99.90
8856;DHT22;4464;50.882;4.730;2022-10-26T15:16:37;22.90;99.90
8856;DHT22;4464;50.882;4.730;2022-10-26T15:19:10;23.20;99.90
8856;DHT22;4464;50.882;4.730;2022-10-26T15:21:44;24.10;99.90
8856;DHT22;4464;50.882;4.730;2022-10-26T15:26:47;26.20;99.90
8856;DHT22;4464;50.882;4.730;2022-10-26T15:29:39;25.80;99.90
8856;DHT22;4464;50.882;4.730;2022-10-26T15:32:26;25.50;99.90
8856;DHT22;4464;50.882;4.730;2022-10-26T15:37:47;25.00;99.90
8856;DHT22;4464;50.882;4.730;2022-10-26T15:40:13;24.80;99.90
8856;DHT22;4464;50.882;4.730;2022-10-26T15:42:40;24.80;99.90
8856;DHT22;4464;50.882;4.730;2022-10-26T15:45:24;25.10;99.90
8856;DHT22;4464;50.882;4.730;2022-10-26T15:47:52;25.20;99.90
8856;DHT22;4464;50.882;4.730;2022-10-26T15:50:21;25.20;99.90
8856;DHT22;4464;50.882;4.730;2022-10-26T15:53:00;25.30;99.90
8856;DHT22;4464;50.882;4.730;2022-10-26T15:55:28;24.70;99.90
8856;DHT22;4464;50.882;4.730;2022-10-26T15:57:54;24.10;99.90
8856;DHT22;4464;50.882;4.730;2022-10-26T16:00:20;23.80;99.90
8856;DHT22;4464;50.882;4.730;2022-10-26T16:02:48;23.30;99.90
8856;DHT22;4464;50.882;4.730;2022-10-26T16:05:15;22.80;99.90
8856;DHT22;4464;50.882;4.730;2022-10-26T16:07:43;22.40;99.90
8856;DHT22;4464;50.882;4.730;2022-10-26T16:10:23;22.10;99.90
8856;DHT22;4464;50.882;4.730;2022-10-26T16:12:49;21.90;99.90
8856;DHT22;4464;50.882;4.730;2022-10-26T16:15:21;21.70;99.90
8856;DHT22;4464;50.882;4.730;2022-10-26T16:17:48;21.60;99.90
8856;DHT22;4464;50.882;4.730;2022-10-26T16:20:20;21.50;99.90
8856;DHT22;4464;50.882;4.730;2022-10-26T16:22:50;21.40;99.90
8856;DHT22;4464;50.882;4.730;2022-10-26T16:25:21;21.20;99.90
8856;DHT22;4464;50.882;4.730;2022-10-26T16:27:47;21.10;99.90
8856;DHT22;4464;50.882;4.730;2022-10-26T16:30:14;20.90;99.90
8856;DHT22;4464;50.882;4.730;2022-10-26T16:32:41;20.70;99.90
8856;DHT22;4464;50.882;4.730;2022-10-26T16:35:08;20.50;99.90
8856;DHT22;4464;50.882;4.730;2022-10-26T16:37:34;20.40;99.90
8856;DHT22;4464;50.882;4.730;2022-10-26T16:40:02;20.20;99.90
8856;DHT22;4464;50.882;4.730;2022-10-26T16:42:30;20.10;99.90
8856;DHT22;4464;50.882;4.730;2022-10-26T16:44:56;19.90;99.90
8856;DHT22;4464;50.882;4.730;2022-10-26T16:47:22;19.80;99.90
8856;DHT22;4464;50.882;4.730;2022-10-26T16:49:47;19.70;99.90
8856;DHT22;4464;50.882;4.730;2022-10-26T16:52:13;19.50;99.90
8856;DHT22;4464;50.882;4.730;2022-10-26T16:54:39;19.40;99.90
8856;DHT22;4464;50.882;4.730;2022-10-26T16:57:07;19.30;99.90
8856;DHT22;4464;50.882;4.730;2022-10-26T16:59:38;19.10;99.90
8856;DHT22;4464;50.882;4.730;2022-10-26T17:02:04;18.90;99.90
8856;DHT22;4464;50.882;4.730;2022-10-26T17:04:39;19.00;99.90
8856;DHT22;4464;50.882;4.730;2022-10-26T17:07:04;18.90;99.90
8856;DHT22;4464;50.882;4.730;2022-10-26T17:09:30;18.90;99.90
8856;DHT22;4464;50.882;4.730;2022-10-26T17:11:56;18.80;99.90
8856;DHT22;4464;50.882;4.730;2022-10-26T17:14:22;18.70;99.90
8856;DHT22;4464;50.882;4.730;2022-10-26T17:16:48;18.80;99.90
8856;DHT22;4464;50.882;4.730;2022-10-26T17:19:14;18.70;99.90
8856;DHT22;4464;50.882;4.730;2022-10-26T17:21:39;18.70;99.90
8856;DHT22;4464;50.882;4.730;2022-10-26T17:24:06;18.70;99.90
8856;DHT22;4464;50.882;4.730;2022-10-26T17:26:34;18.70;99.90
8856;DHT22;4464;50.882;4.730;2022-10-26T17:29:01;18.60;99.90
8856;DHT22;4464;50.882;4.730;2022-10-26T17:31:29;18.50;99.90
8856;DHT22;4464;50.882;4.730;2022-10-26T17:33:57;18.50;99.90
8856;DHT22;4464;50.882;4.730;2022-10-26T17:36:24;18.50;99.90
8856;DHT22;4464;50.882;4.730;2022-10-26T17:38:52;18.50;99.90
8856;DHT22;4464;50.882;4.730;2022-10-26T17:41:20;18.50;99.90
8856;DHT22;4464;50.882;4.730;2022-10-26T17:43:48;18.30;99.90
8856;DHT22;4464;50.882;4.730;2022-10-26T17:46:15;18.30;99.90
8856;DHT22;4464;50.882;4.730;2022-10-26T17:48:42;18.30;99.90
8856;DHT22;4464;50.882;4.730;2022-10-26T17:51:13;18.30;99.90
8856;DHT22;4464;50.882;4.730;2022-10-26T17:53:40;18.30;99.90
8856;DHT22;4464;50.882;4.730;2022-10-26T17:56:08;18.10;99.90
8856;DHT22;4464;50.882;4.730;2022-10-26T17:58:34;18.10;99.90
8856;DHT22;4464;50.882;4.730;2022-10-26T18:01:08;18.10;99.90
8856;DHT22;4464;50.882;4.730;2022-10-26T18:03:34;18.10;99.90
8856;DHT22;4464;50.882;4.730;2022-10-26T18:06:00;18.10;99.90
8856;DHT22;4464;50.882;4.730;2022-10-26T18:08:28;18.10;99.90
8856;DHT22;4464;50.882;4.730;2022-10-26T18:10:54;18.20;99.90
8856;DHT22;4464;50.882;4.730;2022-10-26T18:13:20;18.20;99.90
8856;DHT22;4464;50.882;4.730;2022-10-26T18:15:48;18.30;99.90
8856;DHT22;4464;50.882;4.730;2022-10-26T18:18:14;18.20;99.90
8856;DHT22;4464;50.882;4.730;2022-10-26T18:20:40;18.10;99.90
8856;DHT22;4464;50.882;4.730;2022-10-26T18:23:06;18.10;99.90
8856;DHT22;4464;50.882;4.730;2022-10-26T18:25:32;17.90;99.90
8856;DHT22;4464;50.882;4.730;2022-10-26T18:28:01;17.80;99.90
8856;DHT22;4464;50.882;4.730;2022-10-26T18:30:29;17.70;99.90
8856;DHT22;4464;50.882;4.730;2022-10-26T18:32:55;17.60;99.90
8856;DHT22;4464;50.882;4.730;2022-10-26T18:35:23;17.60;99.90
8856;DHT22;4464;50.882;4.730;2022-10-26T18:37:49;17.50;99.90
8856;DHT22;4464;50.882;4.730;2022-10-26T18:40:15;17.50;99.90
8856;DHT22;4464;50.882;4.730;2022-10-26T18:42:45;17.30;99.90
8856;DHT22;4464;50.882;4.730;2022-10-26T18:45:15;17.30;99.90
8856;DHT22;4464;50.882;4.730;2022-10-26T18:47:42;17.30;99.90
8856;DHT22;4464;50.882;4.730;2022-10-26T18:50:08;17.30;99.90